Orleans, Canada
Current Conditions -  °F | °C
As of 8:17 PM on Sunday 23 Nov 2014 (Local Time) from CYND Reporting Station
Haze Haze  
Wind Chill: 34°   Ceiling: 4000
Heat Index: 39°   Visibility: 3mi
Dew Point: 39°   Wind: 7mph
Humidity: 100%   Direction: 70°ENE
Pressure: 29.93"   Gusts: NA
Location:  45.47°N, 75.52°W
Report Text: CYND 240117Z 07006KT 3SM BR SCT004 OVC040 04/04 A2993 RMK SF4SC4 SLP136
Loading
Personal Weather Stations






























Interactive Weather Map New forecast layout! Learn more

10-Day Weather Forecast

Advertisements
Track Severe Weather on mobile